Disclaimer

Please do not use the information listed here in-flight or in-navigation, as they are not provided to us by the airports but are provided by volunteers, so they might be outdated.

Search


Regions


Airport information page

Radio informations:
SAMARA KRUG - 128.0 MHz
SAMARA VOLMET - 126.875 MHz
SAMARA TRANSIT - 131.6 MHz
SAMARA TAXIING - 119.0 MHz
SAMARA ATIS - 134.9 MHz

Airport informations:
Latitude: 53° 30' 17.49" N
Longitude: 050° 09' 51.61" E
Elevation: 477 feet - 145 meters
Operating hours: 24 hour operations
Operating agency: Civil government, landing fees and diplomatic clearance may be required
Timezone: UTC+4(+5DT) - Last Sunday in March to last Sunday in October
Fuel: Jet A1, without icing nhibitor.

Runway information:
05/23 - 8360 x 197 feet< - >2548 x 60 meters
15/33 - 9846 x 148 feet< - >3001 x 45 meters

Recent METARs:
UWWW 122130Z 29001MPS CAVOK M12/M14 Q1050 R15/CLRD60 NOSIG RMK QFE775/1034
UWWW 122200Z 30002MPS CAVOK M12/M14 Q1049 R15/CLRD60 NOSIG RMK QFE775/1034
UWWW 122300Z 00000MPS CAVOK M12/M14 Q1049 R15/CLRD60 NOSIG RMK QFE775/1034

Airport on the map: